createdAt,value
2017-12-01T00:00:16.480Z,3.42
2017-12-01T00:02:50.958Z,3.48
2017-12-01T00:05:25.399Z,3.33
2017-12-01T00:07:59.867Z,3.14
2017-12-01T00:10:34.254Z,3.15
2017-12-01T00:13:08.882Z,3.05
2017-12-01T00:15:43.284Z,3.21
2017-12-01T00:18:17.900Z,3.01
2017-12-01T00:20:52.350Z,2.96
2017-12-01T00:23:27.633Z,3.17
2017-12-01T00:26:02.226Z,2.94
2017-12-01T00:28:36.798Z,3.14
2017-12-01T00:31:11.211Z,3.16
2017-12-01T00:33:45.578Z,3.12
2017-12-01T00:36:20.097Z,2.96
2017-12-01T00:38:54.858Z,2.91
2017-12-01T00:41:29.239Z,2.75
2017-12-01T00:44:03.770Z,2.77
2017-12-01T00:46:38.154Z,2.54
2017-12-01T00:49:12.633Z,2.49
2017-12-01T00:51:47.161Z,2.57
2017-12-01T00:54:21.677Z,2.55
2017-12-01T00:56:56.035Z,2.83
2017-12-01T00:59:30.498Z,2.90
2017-12-01T01:02:04.842Z,2.73
2017-12-01T01:04:39.318Z,2.87
2017-12-01T01:07:13.691Z,2.78
2017-12-01T01:09:48.055Z,2.53
2017-12-01T01:12:22.453Z,2.65
2017-12-01T01:14:57.034Z,2.67
2017-12-01T01:17:31.430Z,2.65
2017-12-01T01:20:06.291Z,2.74
2017-12-01T01:22:40.322Z,2.68
2017-12-01T01:25:14.606Z,2.50
2017-12-01T01:27:49.152Z,2.34
2017-12-01T01:30:23.565Z,2.44
2017-12-01T01:32:58.602Z,2.42
2017-12-01T01:35:33.044Z,2.54
2017-12-01T01:38:07.562Z,2.48
2017-12-01T01:40:41.612Z,2.32
2017-12-01T01:43:15.762Z,2.24
2017-12-01T01:45:49.832Z,2.10
2017-12-01T01:48:24.032Z,2.20
2017-12-01T01:50:58.160Z,2.20
2017-12-01T01:53:32.861Z,2.46
2017-12-01T01:56:06.950Z,2.38
2017-12-01T01:58:41.213Z,2.08
2017-12-01T02:01:15.594Z,2.11
2017-12-01T02:03:50.002Z,2.21
2017-12-01T02:06:24.392Z,2.19
2017-12-01T02:08:58.565Z,2.17
2017-12-01T02:11:32.623Z,2.07
2017-12-01T02:14:06.683Z,2.03
2017-12-01T02:16:41.070Z,2.03
2017-12-01T02:19:15.150Z,2.03
2017-12-01T02:21:49.456Z,2.09
2017-12-01T02:24:23.562Z,2.12
2017-12-01T02:26:57.814Z,1.98
2017-12-01T02:29:31.882Z,2.04
2017-12-01T02:32:05.955Z,2.17
2017-12-01T02:34:40.225Z,2.29
2017-12-01T02:37:14.481Z,2.33
2017-12-01T02:39:48.761Z,2.23
2017-12-01T02:42:22.882Z,2.44
2017-12-01T02:44:56.994Z,2.56
2017-12-01T02:47:31.174Z,2.56
2017-12-01T02:50:06.012Z,2.56
2017-12-01T02:52:40.076Z,2.56
2017-12-01T02:55:14.148Z,2.61
2017-12-01T02:57:48.263Z,2.56
2017-12-01T03:00:22.486Z,2.36
2017-12-01T03:02:56.525Z,2.36
2017-12-01T03:05:30.702Z,2.39
2017-12-01T03:08:04.962Z,2.25
2017-12-01T03:10:39.111Z,2.30
2017-12-01T03:13:13.427Z,2.34
2017-12-01T03:15:47.389Z,2.21
2017-12-01T03:18:21.476Z,2.15
2017-12-01T03:20:55.752Z,2.15
2017-12-01T03:23:30.019Z,2.11
2017-12-01T03:26:04.194Z,2.05
2017-12-01T03:28:38.500Z,1.96
2017-12-01T03:31:12.714Z,2.08
2017-12-01T03:33:47.083Z,2.17
2017-12-01T03:36:21.241Z,2.19
2017-12-01T03:38:55.038Z,2.17
2017-12-01T03:41:29.137Z,2.18
2017-12-01T03:44:03.583Z,2.23
2017-12-01T03:46:37.758Z,2.29
2017-12-01T03:49:11.890Z,2.38
2017-12-01T03:51:46.095Z,2.31
2017-12-01T03:54:20.385Z,2.15
2017-12-01T03:56:54.658Z,2.08
2017-12-01T03:59:28.786Z,1.98
2017-12-01T04:02:02.733Z,2.04
2017-12-01T04:04:36.946Z,2.06
2017-12-01T04:07:11.030Z,2.13
2017-12-01T04:09:45.162Z,2.03
2017-12-01T04:12:19.264Z,2.15
2017-12-01T04:14:53.545Z,2.21
2017-12-01T04:17:27.784Z,2.18
2017-12-01T04:20:01.989Z,2.20
2017-12-01T04:22:36.086Z,2.15
2017-12-01T04:25:10.146Z,2.33
2017-12-01T04:27:44.210Z,2.18
2017-12-01T04:30:18.360Z,2.32
2017-12-01T04:32:52.871Z,2.33
2017-12-01T04:35:26.954Z,2.13
2017-12-01T04:38:01.126Z,2.04
2017-12-01T04:40:35.183Z,2.26
2017-12-01T04:43:09.405Z,2.20
2017-12-01T04:45:43.575Z,2.15
2017-12-01T04:48:17.843Z,2.12
2017-12-01T04:50:52.946Z,2.03
2017-12-01T04:53:27.082Z,2.15
2017-12-01T04:56:01.171Z,1.95
2017-12-01T04:58:35.417Z,1.85
2017-12-01T05:01:09.494Z,2.13
2017-12-01T05:03:43.747Z,2.18
2017-12-01T05:06:17.881Z,2.11
2017-12-01T05:08:52.699Z,2.14
2017-12-01T05:11:27.195Z,1.87
2017-12-01T05:14:01.354Z,1.88
2017-12-01T05:16:35.434Z,2.03
2017-12-01T05:19:09.606Z,2.11
2017-12-01T05:21:43.654Z,1.99
2017-12-01T05:24:17.743Z,1.89
2017-12-01T05:26:52.005Z,1.79
2017-12-01T05:29:26.067Z,1.73
2017-12-01T05:32:00.146Z,1.63
2017-12-01T05:34:34.315Z,1.52
2017-12-01T05:37:09.930Z,1.39
2017-12-01T05:39:44.239Z,1.33
2017-12-01T05:42:18.434Z,1.28
2017-12-01T05:44:52.377Z,1.16
2017-12-01T05:47:26.456Z,1.18
2017-12-01T05:50:00.658Z,1.30
2017-12-01T05:52:34.820Z,1.48
2017-12-01T05:55:10.611Z,1.34
2017-12-01T05:57:44.886Z,1.12
2017-12-01T06:00:18.922Z,0.99
2017-12-01T06:02:52.958Z,0.80
2017-12-01T06:05:27.087Z,0.67
2017-12-01T06:08:01.350Z,0.61
2017-12-01T06:10:35.510Z,0.63
2017-12-01T06:13:09.742Z,0.54
2017-12-01T06:15:43.583Z,0.67
2017-12-01T06:18:17.623Z,0.78
2017-12-01T06:20:51.775Z,0.58
2017-12-01T06:23:25.873Z,0.46
2017-12-01T06:25:59.962Z,0.39
2017-12-01T06:28:33.982Z,0.37
2017-12-01T06:31:08.251Z,0.36
2017-12-01T06:33:42.438Z,0.33
2017-12-01T06:36:16.582Z,0.39
2017-12-01T06:38:50.856Z,0.32
2017-12-01T06:41:25.449Z,0.50
2017-12-01T06:43:59.594Z,0.46
2017-12-01T06:46:34.002Z,0.49
2017-12-01T06:49:08.246Z,0.63
2017-12-01T06:51:42.286Z,0.58
2017-12-01T06:54:16.794Z,0.89
2017-12-01T06:56:50.911Z,0.87
2017-12-01T06:59:24.885Z,0.92
2017-12-01T07:01:59.322Z,1.20
2017-12-01T07:04:34.074Z,1.07
2017-12-01T07:07:07.990Z,1.38
2017-12-01T07:09:42.522Z,1.28
2017-12-01T07:12:16.773Z,1.40
2017-12-01T07:14:51.156Z,1.37
2017-12-01T07:17:25.510Z,1.60
2017-12-01T07:19:59.911Z,1.44
2017-12-01T07:22:35.458Z,1.44
2017-12-01T07:25:14.662Z,1.41
2017-12-01T07:27:49.254Z,1.60
2017-12-01T07:30:23.663Z,1.74
2017-12-01T07:32:58.050Z,1.58
2017-12-01T07:35:32.599Z,1.62
2017-12-01T07:38:06.991Z,1.49
2017-12-01T07:40:42.115Z,1.43
2017-12-01T07:43:16.546Z,1.38
2017-12-01T07:45:50.810Z,1.43
2017-12-01T07:48:25.095Z,1.29
2017-12-01T07:50:59.374Z,1.38
2017-12-01T07:53:33.795Z,1.52
2017-12-01T07:56:07.958Z,1.36
2017-12-01T07:58:42.282Z,1.31
2017-12-01T08:01:16.995Z,1.40
2017-12-01T08:03:52.066Z,1.53
2017-12-01T08:06:26.398Z,1.43
2017-12-01T08:09:00.830Z,1.78
2017-12-01T08:11:35.097Z,1.88
2017-12-01T08:14:09.498Z,1.74
2017-12-01T08:16:54.858Z,1.56
2017-12-01T08:19:29.094Z,1.56
2017-12-01T08:22:14.297Z,1.69
2017-12-01T08:24:59.710Z,1.82
2017-12-01T08:27:34.010Z,1.93
2017-12-01T08:30:14.875Z,1.86
2017-12-01T08:32:49.281Z,2.02
2017-12-01T08:35:23.771Z,1.99
2017-12-01T08:37:58.351Z,2.01
2017-12-01T08:40:32.395Z,2.11
2017-12-01T08:43:06.776Z,2.46
2017-12-01T08:45:41.163Z,2.77
2017-12-01T08:48:15.690Z,2.73
2017-12-01T08:50:50.202Z,2.86
2017-12-01T08:53:24.773Z,2.93
2017-12-01T08:55:59.220Z,2.95
2017-12-01T08:58:33.713Z,3.07
2017-12-01T09:01:07.878Z,3.38
2017-12-01T09:03:42.377Z,3.49
2017-12-01T09:06:16.442Z,3.48
2017-12-01T09:08:50.943Z,3.35
2017-12-01T09:11:25.452Z,3.68
2017-12-01T09:13:59.829Z,3.78
2017-12-01T09:16:34.858Z,4.07
2017-12-01T09:19:09.331Z,4.32
2017-12-01T09:21:44.026Z,4.22
2017-12-01T09:24:18.407Z,3.99
2017-12-01T09:26:52.634Z,3.77
2017-12-01T09:29:27.217Z,3.77
2017-12-01T09:32:01.694Z,3.73
2017-12-01T09:34:36.178Z,3.82
2017-12-01T09:37:11.114Z,3.80
2017-12-01T09:39:45.622Z,4.02
2017-12-01T09:42:19.822Z,3.93
2017-12-01T09:44:53.958Z,4.03
2017-12-01T09:47:28.384Z,4.07
2017-12-01T09:50:03.178Z,4.05
2017-12-01T09:52:37.619Z,4.20
2017-12-01T09:55:12.128Z,4.31
2017-12-01T09:57:46.248Z,4.48
2017-12-01T10:00:20.150Z,4.63
2017-12-01T10:02:54.527Z,4.96
2017-12-01T10:05:28.706Z,5.53
2017-12-01T10:08:02.887Z,6.71
2017-12-01T10:10:38.124Z,6.98
2017-12-01T10:13:12.644Z,7.00
2017-12-01T10:15:46.997Z,7.82
2017-12-01T10:18:21.646Z,8.18
2017-12-01T10:20:55.526Z,8.68
2017-12-01T10:23:29.915Z,8.81
2017-12-01T10:26:04.394Z,9.08
2017-12-01T10:28:38.834Z,8.46
2017-12-01T10:31:13.234Z,8.41
2017-12-01T10:33:47.819Z,8.72
2017-12-01T10:36:22.137Z,8.50
2017-12-01T10:38:56.755Z,8.46
2017-12-01T10:41:31.287Z,8.53
2017-12-01T10:44:06.411Z,8.29
2017-12-01T10:46:40.942Z,8.08
2017-12-01T10:49:15.454Z,7.68
2017-12-01T10:51:49.487Z,7.51
2017-12-01T10:54:23.854Z,7.58
2017-12-01T10:56:58.262Z,7.56
2017-12-01T10:59:32.328Z,7.34
2017-12-01T11:02:06.786Z,7.33
2017-12-01T11:04:41.377Z,7.24
2017-12-01T11:07:15.784Z,7.35
2017-12-01T11:09:50.278Z,7.53
2017-12-01T11:12:24.716Z,7.35
2017-12-01T11:14:59.074Z,7.99
2017-12-01T11:17:33.445Z,8.02
2017-12-01T11:20:09.266Z,7.98
2017-12-01T11:22:43.940Z,8.10
2017-12-01T11:25:18.318Z,8.00
2017-12-01T11:27:53.607Z,7.93
2017-12-01T11:30:28.801Z,7.77
2017-12-01T11:33:03.090Z,7.98
2017-12-01T11:35:37.542Z,8.36
2017-12-01T11:38:11.930Z,8.25
2017-12-01T11:40:46.394Z,8.20
2017-12-01T11:43:20.921Z,8.26
2017-12-01T11:45:55.366Z,8.32
2017-12-01T11:48:29.858Z,8.66
2017-12-01T11:51:04.540Z,8.82
2017-12-01T11:53:39.001Z,8.67
2017-12-01T11:56:13.406Z,8.73
2017-12-01T11:58:47.906Z,9.40
2017-12-01T12:01:21.752Z,9.07
2017-12-01T12:03:56.351Z,9.04
2017-12-01T12:06:30.452Z,9.04
2017-12-01T12:09:04.339Z,9.06
2017-12-01T12:11:38.410Z,9.28
2017-12-01T12:14:12.586Z,9.11
2017-12-01T12:16:47.176Z,9.71
2017-12-01T12:19:21.358Z,9.55
2017-12-01T12:21:55.765Z,9.75
2017-12-01T12:24:29.854Z,9.33
2017-12-01T12:27:04.601Z,9.54
2017-12-01T12:29:38.781Z,9.22
2017-12-01T12:32:13.128Z,9.38
2017-12-01T12:34:47.302Z,9.04
2017-12-01T12:37:21.358Z,8.86
2017-12-01T12:39:55.429Z,8.64
2017-12-01T12:42:29.579Z,8.74
2017-12-01T12:45:09.671Z,8.65
2017-12-01T12:47:43.778Z,8.24
2017-12-01T12:50:18.210Z,8.50
2017-12-01T12:52:52.581Z,8.69
2017-12-01T12:55:26.970Z,8.63
2017-12-01T12:58:00.998Z,8.65
2017-12-01T13:00:34.771Z,8.74
2017-12-01T13:03:08.951Z,8.73
2017-12-01T13:05:43.018Z,8.69
2017-12-01T13:08:17.228Z,9.09
2017-12-01T13:10:52.163Z,8.91
2017-12-01T13:13:26.454Z,8.72
2017-12-01T13:16:00.357Z,8.66
2017-12-01T13:18:34.430Z,8.79
2017-12-01T13:21:08.610Z,8.42
2017-12-01T13:23:42.814Z,7.92
2017-12-01T13:26:19.271Z,7.03
2017-12-01T13:28:53.398Z,7.54
2017-12-01T13:31:28.191Z,7.32
2017-12-01T13:34:02.438Z,7.21
2017-12-01T13:36:36.875Z,6.85
2017-12-01T13:39:11.014Z,6.78
2017-12-01T13:41:45.082Z,6.86
2017-12-01T13:44:19.170Z,6.30
2017-12-01T13:46:53.609Z,6.39
2017-12-01T13:49:27.756Z,6.25
2017-12-01T13:52:04.693Z,6.09
2017-12-01T13:54:39.887Z,6.04
2017-12-01T13:57:14.406Z,5.72
2017-12-01T13:59:48.847Z,5.76
2017-12-01T14:02:22.779Z,5.49
2017-12-01T14:04:57.698Z,5.50
2017-12-01T14:07:31.898Z,5.35
2017-12-01T14:10:12.138Z,5.27
2017-12-01T14:12:46.704Z,5.15
2017-12-01T14:15:21.171Z,5.18
2017-12-01T14:17:55.813Z,5.16
2017-12-01T14:20:30.222Z,5.14
2017-12-01T14:23:04.710Z,5.11
2017-12-01T14:25:39.346Z,5.20
2017-12-01T14:28:13.866Z,5.18
2017-12-01T14:30:48.334Z,5.07
2017-12-01T14:33:22.810Z,5.01
2017-12-01T14:35:57.936Z,4.92
2017-12-01T14:38:32.554Z,4.92
2017-12-01T14:41:06.990Z,4.86
2017-12-01T14:43:41.903Z,4.68
2017-12-01T14:46:16.322Z,4.79
2017-12-01T14:48:50.942Z,4.74
2017-12-01T14:51:26.004Z,4.65
2017-12-01T14:54:00.710Z,4.55
2017-12-01T14:56:35.106Z,4.52
2017-12-01T14:59:09.630Z,4.35
2017-12-01T15:01:43.982Z,4.46
2017-12-01T15:04:18.575Z,4.33
2017-12-01T15:06:53.513Z,4.22
2017-12-01T15:09:28.046Z,3.91
2017-12-01T15:12:03.918Z,4.10
2017-12-01T15:14:39.321Z,3.99
2017-12-01T15:17:13.865Z,3.93
2017-12-01T15:19:48.279Z,3.92
2017-12-01T15:22:24.039Z,3.70
2017-12-01T15:25:00.450Z,3.72
2017-12-01T15:27:37.946Z,3.63
2017-12-01T15:30:12.376Z,3.64
2017-12-01T15:32:49.422Z,3.50
2017-12-01T15:35:23.947Z,3.43
2017-12-01T15:37:58.441Z,3.56
2017-12-01T15:40:32.638Z,3.43
2017-12-01T15:43:06.910Z,3.39
2017-12-01T15:45:40.958Z,3.39
2017-12-01T15:48:15.349Z,3.35
2017-12-01T15:50:49.919Z,3.33
2017-12-01T15:53:24.527Z,3.18
2017-12-01T15:55:58.774Z,3.19
2017-12-01T15:58:40.930Z,3.25
2017-12-01T16:01:15.148Z,3.17
2017-12-01T16:03:49.264Z,3.08
2017-12-01T16:06:23.419Z,3.03
2017-12-01T16:08:57.681Z,2.84
2017-12-01T16:11:31.735Z,3.06
2017-12-01T16:14:09.438Z,3.04
2017-12-01T16:16:43.962Z,3.05
2017-12-01T16:19:18.073Z,3.13
2017-12-01T16:21:52.106Z,3.16
2017-12-01T16:24:26.206Z,3.13
2017-12-01T16:27:00.273Z,3.13
2017-12-01T16:29:35.402Z,3.17
2017-12-01T16:32:09.793Z,3.11
2017-12-01T16:34:44.342Z,3.08
2017-12-01T16:37:18.754Z,3.13
2017-12-01T16:39:53.297Z,3.07
2017-12-01T16:42:27.361Z,3.04
2017-12-01T16:45:01.862Z,2.95
2017-12-01T16:47:36.247Z,2.90
2017-12-01T16:50:15.451Z,3.24
2017-12-01T16:52:49.622Z,3.23
2017-12-01T16:55:23.708Z,3.15
2017-12-01T16:57:58.304Z,3.35
2017-12-01T17:00:32.772Z,3.19
2017-12-01T17:03:06.878Z,3.11
2017-12-01T17:05:41.063Z,2.87
2017-12-01T17:08:15.395Z,2.96
2017-12-01T17:10:49.553Z,2.86
2017-12-01T17:13:23.743Z,2.86
2017-12-01T17:15:59.204Z,2.80
2017-12-01T17:18:33.258Z,3.20
2017-12-01T17:21:07.446Z,3.42
2017-12-01T17:23:41.602Z,3.34
2017-12-01T17:26:17.074Z,3.30
2017-12-01T17:28:51.361Z,3.17
2017-12-01T17:31:27.098Z,2.96
2017-12-01T17:34:01.342Z,2.80
2017-12-01T17:36:35.410Z,2.94
2017-12-01T17:39:12.474Z,2.97
2017-12-01T17:41:52.762Z,3.03
2017-12-01T17:44:27.355Z,3.08
2017-12-01T17:47:02.030Z,2.89
2017-12-01T17:49:36.186Z,2.47
2017-12-01T17:52:10.199Z,2.43
2017-12-01T17:54:44.508Z,2.73
2017-12-01T17:57:18.663Z,2.52
2017-12-01T17:59:53.330Z,2.73
2017-12-01T18:02:27.594Z,2.68
2017-12-01T18:05:02.111Z,2.92
2017-12-01T18:07:36.162Z,2.84
2017-12-01T18:10:10.194Z,2.61
2017-12-01T18:12:44.426Z,2.48
2017-12-01T18:15:18.462Z,2.43
2017-12-01T18:17:52.754Z,2.26
2017-12-01T18:20:26.853Z,2.50
2017-12-01T18:23:01.287Z,2.56
2017-12-01T18:25:35.442Z,2.46
2017-12-01T18:28:09.608Z,2.52
2017-12-01T18:30:43.646Z,2.20
2017-12-01T18:33:17.877Z,2.30
2017-12-01T18:35:52.305Z,2.52
2017-12-01T18:38:26.560Z,2.78
2017-12-01T18:41:00.946Z,2.79
2017-12-01T18:43:35.113Z,2.88
2017-12-01T18:46:09.485Z,2.98
2017-12-01T18:48:43.990Z,2.81
2017-12-01T18:51:18.125Z,2.63
2017-12-01T18:53:52.382Z,2.52
2017-12-01T18:56:26.579Z,2.33
2017-12-01T18:59:00.674Z,2.34
2017-12-01T19:01:35.179Z,2.35
2017-12-01T19:04:09.798Z,2.42
2017-12-01T19:06:44.153Z,2.22
2017-12-01T19:09:18.353Z,2.21
2017-12-01T19:11:52.929Z,2.44
2017-12-01T19:14:27.371Z,2.82
2017-12-01T19:17:02.392Z,2.87
2017-12-01T19:19:36.591Z,2.99
2017-12-01T19:22:12.377Z,3.06
2017-12-01T19:24:46.438Z,3.05
2017-12-01T19:27:20.651Z,3.00
2017-12-01T19:29:55.092Z,2.86
2017-12-01T19:32:29.342Z,2.82
2017-12-01T19:35:03.576Z,3.08
2017-12-01T19:37:38.366Z,2.96
2017-12-01T19:40:12.841Z,2.77
2017-12-01T19:42:47.087Z,2.99
2017-12-01T19:45:21.211Z,2.94
2017-12-01T19:47:55.771Z,2.89
2017-12-01T19:50:33.971Z,3.13
2017-12-01T19:53:08.553Z,3.40
2017-12-01T19:55:46.083Z,3.26
2017-12-01T19:58:20.293Z,2.98
2017-12-01T20:00:55.313Z,3.05
2017-12-01T20:03:29.811Z,2.99
2017-12-01T20:06:07.979Z,3.33
2017-12-01T20:08:43.487Z,3.24
2017-12-01T20:11:17.532Z,3.06
2017-12-01T20:13:52.154Z,2.78
2017-12-01T20:16:26.088Z,2.94
2017-12-01T20:19:00.182Z,3.17
2017-12-01T20:21:34.353Z,3.42
2017-12-01T20:24:08.997Z,3.42
2017-12-01T20:26:43.209Z,3.16
2017-12-01T20:29:17.882Z,2.90
2017-12-01T20:31:52.705Z,3.01
2017-12-01T20:34:28.092Z,3.00
2017-12-01T20:37:02.410Z,3.30
2017-12-01T20:39:36.648Z,3.23
2017-12-01T20:42:10.641Z,3.17
2017-12-01T20:44:46.893Z,3.09
2017-12-01T20:47:25.479Z,3.04
2017-12-01T20:49:59.708Z,2.95
2017-12-01T20:52:33.985Z,3.28
2017-12-01T20:55:08.790Z,3.32
2017-12-01T20:57:42.923Z,3.15
2017-12-01T21:00:16.963Z,3.09
2017-12-01T21:02:51.457Z,2.98
2017-12-01T21:05:26.624Z,2.76
2017-12-01T21:08:00.892Z,2.55
2017-12-01T21:10:36.101Z,2.49
2017-12-01T21:13:10.863Z,2.57
2017-12-01T21:15:45.132Z,2.45
2017-12-01T21:18:19.174Z,2.41
2017-12-01T21:20:53.569Z,2.46
2017-12-01T21:23:28.104Z,2.09
2017-12-01T21:26:03.854Z,2.32
2017-12-01T21:28:38.550Z,2.00
2017-12-01T21:31:12.775Z,2.06
2017-12-01T21:33:46.831Z,1.87
2017-12-01T21:36:24.719Z,1.77
2017-12-01T21:38:59.518Z,1.58
2017-12-01T21:41:34.613Z,1.54
2017-12-01T21:44:09.046Z,1.47
2017-12-01T21:46:46.510Z,1.44
2017-12-01T21:49:22.124Z,1.39
2017-12-01T21:51:59.022Z,1.21
2017-12-01T21:54:34.435Z,1.25
2017-12-01T21:57:09.045Z,1.29
2017-12-01T21:59:48.348Z,1.54
2017-12-01T22:02:22.860Z,1.48
2017-12-01T22:04:58.108Z,1.46
2017-12-01T22:07:32.951Z,1.40
2017-12-01T22:10:07.529Z,1.38
2017-12-01T22:12:42.073Z,1.41
2017-12-01T22:15:21.023Z,1.43
2017-12-01T22:17:55.421Z,1.46
2017-12-01T22:20:29.578Z,1.39
2017-12-01T22:23:03.627Z,1.48
2017-12-01T22:25:39.000Z,1.44
2017-12-01T22:28:13.466Z,1.34
2017-12-01T22:30:47.855Z,1.35
2017-12-01T22:33:23.197Z,1.38
2017-12-01T22:35:57.774Z,1.41
2017-12-01T22:38:32.214Z,1.29
2017-12-01T22:41:06.571Z,1.21
2017-12-01T22:43:40.931Z,1.28
2017-12-01T22:46:15.920Z,1.22
2017-12-01T22:48:50.518Z,1.22
2017-12-01T22:51:24.881Z,0.99
2017-12-01T22:53:59.353Z,1.12
2017-12-01T22:56:34.020Z,1.42
2017-12-01T22:59:08.387Z,1.48
2017-12-01T23:01:42.834Z,1.46
2017-12-01T23:04:17.794Z,1.43
2017-12-01T23:06:52.380Z,1.54
2017-12-01T23:09:27.030Z,1.79
2017-12-01T23:12:01.498Z,2.10
2017-12-01T23:14:35.878Z,1.99
2017-12-01T23:17:10.335Z,1.64
2017-12-01T23:19:44.994Z,1.60
2017-12-01T23:22:19.355Z,1.83
2017-12-01T23:24:53.787Z,1.97
2017-12-01T23:27:28.094Z,1.74
2017-12-01T23:30:02.799Z,1.68
2017-12-01T23:32:37.975Z,1.80
2017-12-01T23:35:13.162Z,1.92
2017-12-01T23:37:47.775Z,2.00
2017-12-01T23:40:22.895Z,1.91
2017-12-01T23:42:57.457Z,1.98
2017-12-01T23:45:32.118Z,1.63
2017-12-01T23:48:06.626Z,1.44
2017-12-01T23:50:40.990Z,1.33
2017-12-01T23:53:15.770Z,1.23
2017-12-01T23:55:49.922Z,1.14
2017-12-01T23:58:24.276Z,1.07
